Time;durP1;ratioP1;P1;durP2;ratioP2;P2;SDS_P1;SDS_P2;PMS_P1;PMS_P2;Temp;Humidity;BMP_temperature;BMP_pressure;BME280_temperature;BME280_humidity;BME280_pressure;Samples;Min_cycle;Max_cycle;Signal;HPM_P1;HPM_P2
2022/08/20 00:00:45;;;;;;;7.07;5.65;;;22.00;99.90;;;;;;5046156;28;20040;-44
2022/08/20 00:03:22;;;;;;;7.53;5.88;;;21.90;99.90;;;;;;5047461;28;20025;-44
2022/08/20 00:05:54;;;;;;;6.63;5.93;;;21.90;99.90;;;;;;5046103;28;20079;-43
2022/08/20 00:08:21;;;;;;;6.22;5.47;;;21.90;99.90;;;;;;5046167;28;20053;-44
2022/08/20 00:10:49;;;;;;;6.10;5.50;;;22.00;99.90;;;;;;5046105;28;20139;-43
2022/08/20 00:13:26;;;;;;;7.30;5.20;;;21.90;99.90;;;;;;5047080;28;20021;-43
2022/08/20 00:15:52;;;;;;;5.72;4.47;;;22.00;99.90;;;;;;5046068;28;20120;-43
2022/08/20 00:18:19;;;;;;;6.40;5.65;;;21.90;99.90;;;;;;5046782;28;20103;-43
2022/08/20 00:20:47;;;;;;;7.05;6.15;;;21.90;99.90;;;;;;5046417;28;20039;-44
2022/08/20 00:23:13;;;;;;;7.63;6.70;;;21.90;99.90;;;;;;5046723;28;20040;-44
2022/08/20 00:25:40;;;;;;;6.95;6.05;;;21.90;99.90;;;;;;5046870;28;20029;-44
2022/08/20 00:28:06;;;;;;;7.95;6.38;;;21.90;99.90;;;;;;5046375;28;20017;-44
2022/08/20 00:30:34;;;;;;;7.38;6.57;;;21.90;99.90;;;;;;5046474;28;20028;-44
2022/08/20 00:33:06;;;;;;;6.80;6.10;;;22.00;99.90;;;;;;5044715;28;20013;-43
2022/08/20 00:35:34;;;;;;;6.82;6.13;;;21.90;99.90;;;;;;5028551;28;20044;-43
2022/08/20 00:38:00;;;;;;;6.28;5.68;;;21.90;99.90;;;;;;5044894;28;20449;-44
2022/08/20 00:40:29;;;;;;;5.75;5.15;;;21.90;99.90;;;;;;5046255;28;20539;-44
2022/08/20 00:42:59;;;;;;;6.72;5.40;;;21.90;99.90;;;;;;5045466;28;20027;-44
2022/08/20 00:45:28;;;;;;;6.22;5.60;;;21.90;99.90;;;;;;5045917;28;20100;-44
2022/08/20 00:47:57;;;;;;;5.60;5.03;;;21.90;99.90;;;;;;5045595;28;20028;-44
2022/08/20 00:50:32;;;;;;;6.97;5.28;;;21.90;99.90;;;;;;5045997;28;20037;-44
2022/08/20 00:52:59;;;;;;;8.55;5.97;;;21.90;99.90;;;;;;5045867;28;20021;-44
2022/08/20 00:55:25;;;;;;;7.75;5.50;;;21.90;99.90;;;;;;5045612;28;20037;-44
2022/08/20 00:57:58;;;;;;;6.78;5.72;;;21.90;99.90;;;;;;5045620;28;20498;-44
2022/08/20 01:00:31;;;;;;;5.18;4.63;;;21.90;99.90;;;;;;5045725;28;20032;-44
2022/08/20 01:02:59;;;;;;;4.75;4.35;;;21.90;99.90;;;;;;5046016;28;20051;-44
2022/08/20 01:05:25;;;;;;;7.10;5.70;;;21.80;99.90;;;;;;5045880;28;20045;-44
2022/08/20 01:07:53;;;;;;;5.75;5.25;;;21.70;99.90;;;;;;5045564;28;20025;-45
2022/08/20 01:10:27;;;;;;;6.05;5.45;;;21.70;99.90;;;;;;5045703;28;20067;-35
2022/08/20 01:12:56;;;;;;;6.93;5.25;;;21.70;99.90;;;;;;5045639;28;20031;-35
2022/08/20 01:15:24;;;;;;;6.70;5.90;;;21.70;99.90;;;;;;5046118;28;20029;-35
2022/08/20 01:17:53;;;;;;;7.72;5.88;;;21.70;99.90;;;;;;5044918;28;20132;-35
2022/08/20 01:20:29;;;;;;;6.40;5.55;;;21.70;99.90;;;;;;5046150;28;20029;-35
2022/08/20 01:23:31;;;;;;;5.88;5.22;;;21.60;99.90;;;;;;5045874;28;20024;-35
2022/08/20 01:26:11;;;;;;;6.00;5.40;;;21.60;99.90;;;;;;5038853;28;20033;-34
2022/08/20 01:28:39;;;;;;;5.78;5.18;;;21.60;99.90;;;;;;5045533;28;20040;-34
2022/08/20 01:31:07;;;;;;;6.88;5.72;;;21.60;99.90;;;;;;5045727;28;20037;-34
2022/08/20 01:33:33;;;;;;;6.28;5.57;;;21.70;99.90;;;;;;5044190;28;20055;-35
2022/08/20 01:35:59;;;;;;;7.75;6.35;;;21.70;99.90;;;;;;5045175;28;20032;-34
2022/08/20 01:38:26;;;;;;;7.07;6.38;;;21.70;99.90;;;;;;5044846;28;20070;-35
2022/08/20 01:41:17;;;;;;;7.10;5.88;;;21.70;99.90;;;;;;5045834;28;20021;-34
2022/08/20 01:43:45;;;;;;;7.40;5.82;;;21.70;99.90;;;;;;5045465;28;20162;-35
2022/08/20 01:46:12;;;;;;;8.18;5.97;;;21.70;99.90;;;;;;5044905;28;20033;-35
2022/08/20 01:48:41;;;;;;;7.18;5.75;;;21.70;99.90;;;;;;5045333;28;20055;-35
2022/08/20 01:51:12;;;;;;;8.18;6.45;;;21.70;99.90;;;;;;5045174;28;20060;-35
2022/08/20 01:53:43;;;;;;;7.30;6.15;;;21.70;99.90;;;;;;5044313;28;20551;-35
2022/08/20 01:56:13;;;;;;;7.97;6.57;;;21.70;99.90;;;;;;5044833;28;20562;-34
2022/08/20 01:58:41;;;;;;;7.68;6.43;;;21.70;99.90;;;;;;5044608;28;20025;-34
2022/08/20 02:01:06;;;;;;;6.47;5.75;;;21.70;99.90;;;;;;5044311;28;20032;-34
2022/08/20 02:03:32;;;;;;;8.63;6.07;;;21.70;99.90;;;;;;5044739;28;20090;-35
2022/08/20 02:05:59;;;;;;;7.20;6.45;;;21.70;99.90;;;;;;5044616;28;20043;-34
2022/08/20 02:08:25;;;;;;;7.05;5.78;;;21.70;99.90;;;;;;5043970;28;20024;-35
2022/08/20 02:10:51;;;;;;;6.38;5.70;;;21.70;99.90;;;;;;5044575;28;20025;-34
2022/08/20 02:13:17;;;;;;;5.88;5.32;;;21.70;99.90;;;;;;5044734;28;20646;-34
2022/08/20 02:15:43;;;;;;;6.25;5.65;;;21.60;99.90;;;;;;5043964;28;20860;-34
2022/08/20 02:18:13;;;;;;;6.60;5.90;;;21.60;99.90;;;;;;5044944;28;20327;-34
2022/08/20 02:20:40;;;;;;;7.30;6.15;;;21.60;99.90;;;;;;5043494;28;20427;-34
2022/08/20 02:23:07;;;;;;;6.63;6.03;;;21.60;99.90;;;;;;5044570;28;20032;-33
2022/08/20 02:25:35;;;;;;;6.45;5.50;;;21.50;99.90;;;;;;5044412;28;20021;-34
2022/08/20 02:28:10;;;;;;;7.78;5.82;;;21.60;99.90;;;;;;5043608;28;20435;-34
2022/08/20 02:30:40;;;;;;;6.90;5.80;;;21.50;99.90;;;;;;5043540;28;20056;-35
2022/08/20 02:33:08;;;;;;;7.50;6.28;;;21.60;99.90;;;;;;5044544;28;20507;-35
2022/08/20 02:35:34;;;;;;;7.53;6.40;;;21.50;99.90;;;;;;5044556;28;20044;-34
2022/08/20 02:38:01;;;;;;;7.07;6.32;;;21.60;99.90;;;;;;5044954;28;20021;-34
2022/08/20 02:40:28;;;;;;;6.38;5.68;;;21.60;99.90;;;;;;5044199;28;20029;-34
2022/08/20 02:42:54;;;;;;;8.15;6.10;;;21.70;99.90;;;;;;5044324;28;20469;-34
2022/08/20 02:45:21;;;;;;;6.00;5.28;;;21.70;99.90;;;;;;5044094;28;20082;-35
2022/08/20 02:47:48;;;;;;;7.75;6.47;;;21.70;99.90;;;;;;5043990;28;20359;-35
2022/08/20 02:50:19;;;;;;;7.38;5.63;;;21.70;99.90;;;;;;5044103;28;20419;-35
2022/08/20 02:52:45;;;;;;;5.80;5.30;;;21.60;99.90;;;;;;5042759;28;20480;-35
2022/08/20 02:55:12;;;;;;;7.50;6.20;;;21.60;99.90;;;;;;5044910;28;20075;-34
2022/08/20 02:57:38;;;;;;;6.22;5.63;;;21.60;99.90;;;;;;5043937;28;20021;-35
2022/08/20 03:00:08;;;;;;;8.13;6.50;;;21.60;99.90;;;;;;5044485;28;20043;-34
2022/08/20 03:02:33;;;;;;;6.90;6.20;;;21.60;99.90;;;;;;5044013;28;20481;-36
2022/08/20 03:04:59;;;;;;;7.00;6.22;;;21.60;99.90;;;;;;5043589;28;20351;-34
2022/08/20 03:07:24;;;;;;;7.60;5.97;;;21.60;99.90;;;;;;5043615;28;20028;-35
2022/08/20 03:09:50;;;;;;;5.78;4.95;;;21.60;99.90;;;;;;5043494;28;20029;-35
2022/08/20 03:12:15;;;;;;;6.28;5.22;;;21.50;99.90;;;;;;5044614;28;20331;-36
2022/08/20 03:14:41;;;;;;;7.18;4.70;;;21.50;99.90;;;;;;5043935;28;20481;-35
2022/08/20 03:17:06;;;;;;;5.47;4.97;;;21.50;99.90;;;;;;5043406;28;20037;-35
2022/08/20 03:19:32;;;;;;;5.93;4.90;;;21.60;99.90;;;;;;5044071;28;20025;-35
2022/08/20 03:21:57;;;;;;;9.00;5.75;;;21.50;99.90;;;;;;5043377;28;20021;-35
2022/08/20 03:24:23;;;;;;;5.80;4.38;;;21.50;99.90;;;;;;5043818;28;20396;-34
2022/08/20 03:26:49;;;;;;;5.78;4.65;;;21.50;99.90;;;;;;5043644;28;20501;-33
2022/08/20 03:29:14;;;;;;;7.05;4.88;;;21.50;99.90;;;;;;5044596;28;20049;-34
2022/08/20 03:31:40;;;;;;;6.72;4.85;;;21.50;99.90;;;;;;5042966;28;20025;-34
2022/08/20 03:34:05;;;;;;;11.15;5.07;;;21.40;99.90;;;;;;5043127;28;20099;-34
2022/08/20 03:36:31;;;;;;;5.15;4.57;;;21.40;99.90;;;;;;5043982;28;20110;-34
2022/08/20 03:38:59;;;;;;;6.05;4.75;;;21.40;99.90;;;;;;5043028;28;20444;-34
2022/08/20 03:41:25;;;;;;;5.20;4.70;;;21.30;99.90;;;;;;5043800;28;20048;-34
2022/08/20 03:43:50;;;;;;;4.53;4.13;;;21.30;99.90;;;;;;5047530;28;20384;-35
2022/08/20 03:46:16;;;;;;;5.13;4.45;;;21.30;99.90;;;;;;5047134;28;20028;-34
2022/08/20 03:48:41;;;;;;;6.53;4.18;;;21.20;99.90;;;;;;5047165;28;20061;-34
2022/08/20 03:51:07;;;;;;;4.75;3.85;;;21.20;99.90;;;;;;5047780;28;20025;-35
2022/08/20 03:53:33;;;;;;;4.70;4.20;;;21.20;99.90;;;;;;5046739;28;20017;-35
2022/08/20 03:56:03;;;;;;;6.03;3.95;;;21.20;99.90;;;;;;5047315;28;20037;-36
2022/08/20 03:58:30;;;;;;;4.32;3.92;;;21.20;99.90;;;;;;5046933;28;20021;-35
2022/08/20 04:00:56;;;;;;;4.93;4.43;;;21.10;99.90;;;;;;5047144;28;20191;-35
2022/08/20 04:03:22;;;;;;;5.05;3.60;;;21.10;99.90;;;;;;5046947;28;20532;-35
2022/08/20 04:05:49;;;;;;;4.20;3.80;;;21.20;99.90;;;;;;5046748;28;20055;-35
2022/08/20 04:08:19;;;;;;;4.97;4.20;;;21.10;99.90;;;;;;5046772;28;20017;-36
2022/08/20 04:10:46;;;;;;;4.65;4.10;;;21.10;99.90;;;;;;5045914;28;20032;-34
2022/08/20 04:13:12;;;;;;;5.72;4.00;;;21.10;99.90;;;;;;5046878;28;20031;-35
2022/08/20 04:15:38;;;;;;;7.03;4.40;;;21.10;99.90;;;;;;5046214;28;20135;-35
2022/08/20 04:18:08;;;;;;;4.20;3.80;;;21.10;99.90;;;;;;5046953;28;20102;-35
2022/08/20 04:20:36;;;;;;;3.97;3.55;;;21.10;99.90;;;;;;5046093;28;20025;-36
2022/08/20 04:23:03;;;;;;;4.70;4.00;;;21.10;99.90;;;;;;5046707;28;20108;-35
2022/08/20 04:25:30;;;;;;;4.97;3.83;;;21.10;99.90;;;;;;5046427;28;20071;-35
2022/08/20 04:28:00;;;;;;;3.97;3.58;;;21.00;99.90;;;;;;5046361;28;20029;-34
2022/08/20 04:30:27;;;;;;;4.95;3.53;;;21.00;99.90;;;;;;5046815;28;20033;-35
2022/08/20 04:32:54;;;;;;;5.35;4.22;;;21.00;99.90;;;;;;5046628;28;20502;-34
2022/08/20 04:35:19;;;;;;;5.45;3.92;;;20.90;99.90;;;;;;5046096;28;20037;-35
2022/08/20 04:37:46;;;;;;;6.40;4.28;;;20.90;99.90;;;;;;5046029;28;20024;-34
2022/08/20 04:43:03;;;;;;;7.00;3.92;;;20.90;99.90;;;;;;5046288;28;20094;-34
2022/08/20 04:45:30;;;;;;;4.40;3.85;;;20.90;99.90;;;;;;5046267;28;20017;-34
2022/08/20 04:47:56;;;;;;;7.30;4.40;;;20.90;99.90;;;;;;5046361;28;20575;-34
2022/08/20 04:50:22;;;;;;;5.38;4.57;;;20.90;99.90;;;;;;5046057;28;20033;-35
2022/08/20 04:52:51;;;;;;;7.68;3.90;;;20.90;99.90;;;;;;5045644;28;20060;-35
2022/08/20 04:55:17;;;;;;;3.50;3.00;;;20.70;99.90;;;;;;5046969;28;20036;-34
2022/08/20 04:57:44;;;;;;;3.38;2.25;;;20.60;99.90;;;;;;5045650;28;20029;-35
2022/08/20 05:00:15;;;;;;;3.00;2.40;;;20.40;99.90;;;;;;5046205;28;20044;-34
2022/08/20 05:02:41;;;;;;;2.45;2.20;;;20.20;99.90;;;;;;5035364;28;20041;-34
2022/08/20 05:05:07;;;;;;;3.78;2.45;;;20.00;99.90;;;;;;5045353;28;20122;-35
2022/08/20 05:07:43;;;;;;;3.97;2.50;;;19.80;99.90;;;;;;5045741;28;20024;-36
2022/08/20 05:10:12;;;;;;;2.85;2.60;;;19.70;99.90;;;;;;5045989;28;20456;-35
2022/08/20 05:12:40;;;;;;;2.40;2.15;;;19.70;99.90;;;;;;5045188;28;20530;-34
2022/08/20 05:15:08;;;;;;;6.85;2.60;;;19.60;99.90;;;;;;5046098;28;20087;-35
2022/08/20 05:17:34;;;;;;;3.65;2.65;;;19.70;99.90;;;;;;5044688;28;20025;-35
2022/08/20 05:19:59;;;;;;;2.80;2.55;;;19.70;99.90;;;;;;5045907;28;20032;-34
2022/08/20 05:22:26;;;;;;;4.20;2.60;;;19.70;99.90;;;;;;5045563;28;20198;-35
2022/08/20 05:24:52;;;;;;;4.45;2.95;;;19.70;99.90;;;;;;5044994;28;20029;-34
2022/08/20 05:27:18;;;;;;;4.85;2.97;;;19.80;99.90;;;;;;5045899;28;20345;-34
2022/08/20 05:29:44;;;;;;;3.45;2.58;;;19.80;99.90;;;;;;5045011;28;20033;-35
2022/08/20 05:32:11;;;;;;;3.65;3.00;;;19.80;99.90;;;;;;5045209;28;20354;-34
2022/08/20 05:34:36;;;;;;;4.70;3.10;;;19.90;99.90;;;;;;5044899;28;20733;-35
2022/08/20 05:37:03;;;;;;;3.28;2.90;;;19.90;99.90;;;;;;5045117;28;20029;-34
2022/08/20 05:39:29;;;;;;;3.88;2.65;;;20.00;99.90;;;;;;5044800;28;20472;-34
2022/08/20 05:41:55;;;;;;;3.90;2.67;;;20.00;99.90;;;;;;5045838;28;20427;-35
2022/08/20 05:44:22;;;;;;;3.55;2.30;;;20.00;99.90;;;;;;5045472;28;20021;-36
2022/08/20 05:46:47;;;;;;;2.90;2.20;;;20.10;99.90;;;;;;5043889;28;20020;-35
2022/08/20 05:49:18;;;;;;;4.10;2.72;;;20.10;99.90;;;;;;5045446;28;20067;-34
2022/08/20 05:51:45;;;;;;;2.65;2.45;;;20.00;99.90;;;;;;5044561;28;20035;-34
2022/08/20 05:54:11;;;;;;;4.30;3.05;;;20.00;99.90;;;;;;5045232;28;20156;-35
2022/08/20 05:56:38;;;;;;;4.75;2.80;;;20.00;99.90;;;;;;5045077;28;20032;-35
2022/08/20 05:59:05;;;;;;;3.50;2.75;;;20.00;99.90;;;;;;5041453;28;20087;-34
2022/08/20 06:01:33;;;;;;;6.10;2.90;;;20.00;99.90;;;;;;5044721;28;20267;-37
2022/08/20 06:06:43;;;;;;;4.50;2.97;;;20.10;99.90;;;;;;5044776;28;20047;-34
2022/08/20 06:09:09;;;;;;;5.70;3.53;;;20.10;99.90;;;;;;5044996;28;20023;-35
2022/08/20 06:11:35;;;;;;;3.78;2.97;;;20.10;99.90;;;;;;5045327;28;20025;-34
2022/08/20 06:14:01;;;;;;;4.22;3.17;;;20.10;99.90;;;;;;5043861;28;20025;-34
2022/08/20 06:16:27;;;;;;;5.05;3.13;;;20.10;99.90;;;;;;5044388;28;20359;-35
2022/08/20 06:18:53;;;;;;;2.95;2.65;;;20.10;99.90;;;;;;5044469;28;20039;-36
2022/08/20 06:21:18;;;;;;;5.47;2.60;;;20.20;99.90;;;;;;5044707;28;20029;-35
2022/08/20 06:23:44;;;;;;;5.88;2.80;;;20.10;99.90;;;;;;5044030;28;20029;-36
2022/08/20 06:26:10;;;;;;;6.07;2.88;;;20.20;99.90;;;;;;5044489;28;20021;-35
2022/08/20 06:28:35;;;;;;;3.47;2.35;;;20.20;99.90;;;;;;5044000;28;20127;-34
2022/08/20 06:31:01;;;;;;;4.45;3.10;;;20.20;99.90;;;;;;5044506;28;20116;-35
2022/08/20 06:33:27;;;;;;;4.65;2.80;;;20.20;99.90;;;;;;5044937;28;20037;-34
2022/08/20 06:35:54;;;;;;;4.30;3.15;;;20.10;99.90;;;;;;5044026;28;20114;-34
2022/08/20 06:38:20;;;;;;;6.53;3.10;;;20.20;99.90;;;;;;5045292;28;20013;-36
2022/08/20 06:40:45;;;;;;;3.80;2.75;;;20.20;99.90;;;;;;5044986;28;20032;-36
2022/08/20 06:43:11;;;;;;;3.10;2.80;;;20.10;99.90;;;;;;5044214;28;20439;-34
2022/08/20 06:45:40;;;;;;;4.95;2.60;;;20.10;99.90;;;;;;5044537;28;20190;-35
2022/08/20 06:48:09;;;;;;;4.47;2.90;;;20.20;99.90;;;;;;5044587;28;20488;-35
2022/08/20 06:50:40;;;;;;;3.67;2.67;;;20.10;99.90;;;;;;5043784;28;20029;-33
2022/08/20 06:53:06;;;;;;;4.05;2.80;;;20.10;99.90;;;;;;5045262;28;20051;-35
2022/08/20 06:55:32;;;;;;;3.83;2.20;;;20.10;99.90;;;;;;5044536;28;20041;-34
2022/08/20 06:58:07;;;;;;;3.83;2.90;;;20.10;99.90;;;;;;5042662;28;20021;-35
2022/08/20 07:00:35;;;;;;;3.78;2.70;;;20.00;99.90;;;;;;5043261;28;20029;-33
2022/08/20 07:03:01;;;;;;;3.72;2.53;;;20.00;99.90;;;;;;5043426;28;20025;-33
2022/08/20 07:05:28;;;;;;;4.13;2.70;;;20.10;99.90;;;;;;5043442;28;20500;-33
2022/08/20 07:07:54;;;;;;;4.63;2.88;;;20.00;99.90;;;;;;5044080;28;20056;-34
2022/08/20 07:10:22;;;;;;;5.30;3.03;;;20.10;99.90;;;;;;5044255;28;20060;-34
2022/08/20 07:12:49;;;;;;;2.85;2.60;;;20.10;99.90;;;;;;5043459;28;20025;-34
2022/08/20 07:15:16;;;;;;;4.75;3.35;;;20.10;99.90;;;;;;5043796;28;20075;-35
2022/08/20 07:17:41;;;;;;;6.30;3.40;;;20.10;99.90;;;;;;5047162;28;20285;-36
2022/08/20 07:20:12;;;;;;;3.65;2.80;;;20.10;99.90;;;;;;5048216;28;20525;-36
2022/08/20 07:22:37;;;;;;;4.63;2.70;;;20.10;99.90;;;;;;5047539;28;20548;-36
2022/08/20 07:25:06;;;;;;;7.00;3.25;;;20.10;99.90;;;;;;5046244;28;20111;-34
2022/08/20 07:27:32;;;;;;;4.93;2.97;;;20.20;99.90;;;;;;5047355;28;20219;-35
2022/08/20 07:32:42;;;;;;;4.90;2.78;;;20.20;99.90;;;;;;5037343;28;20036;-35
2022/08/20 07:35:11;;;;;;;4.45;2.67;;;20.20;99.90;;;;;;5047375;28;20029;-34
2022/08/20 07:37:39;;;;;;;3.38;2.65;;;20.10;99.90;;;;;;5047262;28;20025;-35
2022/08/20 07:40:06;;;;;;;3.72;2.40;;;20.10;99.90;;;;;;5046107;28;20544;-36
2022/08/20 07:42:32;;;;;;;5.70;3.22;;;20.10;99.90;;;;;;5045288;28;20017;-36
2022/08/20 07:44:57;;;;;;;5.90;2.30;;;20.10;99.90;;;;;;5047411;28;20468;-35
2022/08/20 07:47:24;;;;;;;6.40;2.60;;;20.10;99.90;;;;;;5047724;28;20103;-36
2022/08/20 07:49:49;;;;;;;5.75;2.40;;;20.10;99.90;;;;;;5047595;28;20032;-35
2022/08/20 07:52:15;;;;;;;2.75;2.13;;;20.10;99.90;;;;;;5046760;28;20103;-34
2022/08/20 07:54:42;;;;;;;3.40;2.20;;;20.10;99.90;;;;;;5046964;28;20086;-35
2022/08/20 07:57:10;;;;;;;4.05;2.20;;;20.20;99.90;;;;;;5046882;28;20033;-34
2022/08/20 07:59:36;;;;;;;4.65;2.50;;;20.20;99.90;;;;;;5046618;28;20052;-35
2022/08/20 08:02:02;;;;;;;5.03;2.50;;;20.20;99.90;;;;;;5046719;28;20029;-35
2022/08/20 08:04:27;;;;;;;4.25;2.63;;;20.20;99.90;;;;;;5046658;28;20065;-34
2022/08/20 08:06:56;;;;;;;4.03;2.50;;;20.30;99.90;;;;;;5045285;28;20373;-36
2022/08/20 08:09:21;;;;;;;5.13;2.45;;;20.30;99.90;;;;;;5046608;28;20017;-35
2022/08/20 08:11:48;;;;;;;5.10;2.00;;;20.30;99.90;;;;;;5046127;28;20032;-35
2022/08/20 08:14:17;;;;;;;6.03;1.90;;;20.40;99.90;;;;;;5046667;28;20415;-35
2022/08/20 08:16:44;;;;;;;6.20;2.17;;;20.40;99.90;;;;;;5046046;28;20437;-36
2022/08/20 08:19:10;;;;;;;10.05;2.75;;;20.40;99.90;;;;;;5047046;28;20067;-35
2022/08/20 08:21:36;;;;;;;4.82;1.77;;;20.40;99.90;;;;;;5045648;28;20112;-36
2022/08/20 08:24:02;;;;;;;5.97;2.00;;;20.40;99.90;;;;;;5046628;28;20421;-36
2022/08/20 08:26:28;;;;;;;5.65;2.08;;;20.40;99.90;;;;;;5046236;28;20110;-35
2022/08/20 08:28:53;;;;;;;4.20;1.48;;;20.50;99.90;;;;;;5044957;28;20452;-37
2022/08/20 08:31:19;;;;;;;3.95;1.70;;;20.50;99.90;;;;;;5046902;28;20066;-36
2022/08/20 08:33:44;;;;;;;5.88;1.75;;;20.50;99.90;;;;;;5045699;28;20504;-35
2022/08/20 08:36:12;;;;;;;3.60;1.80;;;20.50;99.90;;;;;;5047567;28;20051;-34
2022/08/20 08:38:40;;;;;;;3.90;1.80;;;20.60;99.90;;;;;;5046290;28;20021;-35
2022/08/20 08:41:32;;;;;;;3.42;1.40;;;20.60;99.90;;;;;;5046068;28;20032;-35
2022/08/20 08:44:13;;;;;;;4.95;1.60;;;20.70;99.90;;;;;;5046455;28;20021;-35
2022/08/20 08:46:42;;;;;;;4.15;1.50;;;20.70;99.90;;;;;;5046532;28;20036;-35
2022/08/20 08:49:12;;;;;;;3.08;1.55;;;20.80;99.90;;;;;;5045494;28;20377;-35
2022/08/20 08:51:46;;;;;;;4.20;1.92;;;20.90;99.90;;;;;;5026332;28;20026;-35
2022/08/20 08:54:16;;;;;;;5.47;1.92;;;20.90;99.90;;;;;;5042619;28;20067;-36
2022/08/20 08:56:42;;;;;;;4.65;2.20;;;21.00;99.90;;;;;;5045936;28;20037;-35
2022/08/20 08:59:09;;;;;;;4.88;2.00;;;21.00;99.90;;;;;;5046215;28;20037;-35
2022/08/20 09:01:50;;;;;;;4.10;1.90;;;21.10;99.90;;;;;;5045631;28;20055;-36
2022/08/20 09:04:18;;;;;;;3.72;1.65;;;21.10;99.90;;;;;;5046158;28;20443;-35
2022/08/20 09:06:44;;;;;;;5.60;1.95;;;21.20;99.90;;;;;;5045693;28;20041;-35
2022/08/20 09:09:23;;;;;;;4.32;2.33;;;21.30;99.90;;;;;;5045725;28;20029;-35
2022/08/20 09:11:52;;;;;;;2.58;1.63;;;21.30;99.90;;;;;;5046319;28;20029;-35
2022/08/20 09:14:18;;;;;;;3.88;2.00;;;21.40;99.90;;;;;;5046147;28;20382;-35
2022/08/20 09:16:43;;;;;;;3.92;1.80;;;21.40;99.90;;;;;;5044968;28;20037;-35
2022/08/20 09:19:09;;;;;;;4.55;1.65;;;21.50;99.90;;;;;;5046291;28;20053;-36
2022/08/20 09:21:35;;;;;;;3.38;1.60;;;21.50;99.90;;;;;;5045525;28;20362;-35
2022/08/20 09:24:00;;;;;;;1.85;1.02;;;21.70;99.90;;;;;;5044638;28;20062;-35
2022/08/20 09:26:26;;;;;;;2.95;1.48;;;21.80;99.90;;;;;;5045496;28;20114;-35
2022/08/20 09:28:51;;;;;;;4.60;1.80;;;22.00;99.90;;;;;;5044899;28;20053;-34
2022/08/20 09:31:17;;;;;;;4.75;1.63;;;22.10;99.90;;;;;;5044751;28;20028;-35
2022/08/20 09:33:43;;;;;;;3.45;1.77;;;22.40;99.90;;;;;;5045443;28;20333;-35
2022/08/20 09:36:08;;;;;;;5.35;1.90;;;22.50;99.90;;;;;;5045372;28;20040;-35
2022/08/20 09:38:34;;;;;;;5.30;1.80;;;22.50;99.90;;;;;;5044708;28;20025;-43
2022/08/20 09:40:59;;;;;;;2.75;1.58;;;22.50;99.90;;;;;;5043504;28;20104;-36
2022/08/20 09:43:25;;;;;;;5.00;1.80;;;22.40;99.90;;;;;;5045322;28;20020;-35
2022/08/20 09:45:50;;;;;;;6.97;2.33;;;22.40;99.80;;;;;;5044573;28;20040;-35
2022/08/20 09:48:16;;;;;;;4.72;1.60;;;22.30;99.90;;;;;;5046305;28;20452;-36
2022/08/20 09:50:47;;;;;;;4.47;2.13;;;22.20;99.90;;;;;;5044579;28;20017;-35
2022/08/20 09:53:13;;;;;;;3.00;1.63;;;22.30;99.80;;;;;;5045080;28;20036;-35
2022/08/20 09:55:45;;;;;;;5.88;2.08;;;22.30;99.60;;;;;;5044725;28;20116;-34
2022/08/20 09:58:38;;;;;;;9.57;2.30;;;22.40;98.00;;;;;;5044764;28;20036;-35
2022/08/20 10:01:13;;;;;;;5.13;1.85;;;22.40;97.80;;;;;;5044435;28;20028;-36
2022/08/20 10:03:39;;;;;;;4.63;1.90;;;22.40;97.80;;;;;;5044562;28;20060;-36
2022/08/20 10:06:05;;;;;;;7.15;2.30;;;22.40;97.60;;;;;;5044227;28;20025;-34
2022/08/20 10:08:31;;;;;;;6.25;1.92;;;22.30;95.90;;;;;;5044393;28;20029;-34
2022/08/20 10:10:56;;;;;;;4.53;1.35;;;22.30;95.60;;;;;;5044624;28;20031;-35
2022/08/20 10:13:22;;;;;;;3.58;1.60;;;22.30;96.20;;;;;;5044717;28;20288;-34
2022/08/20 10:15:47;;;;;;;4.68;1.60;;;22.40;96.00;;;;;;5044376;28;20048;-35
2022/08/20 10:18:13;;;;;;;8.48;1.73;;;22.60;96.20;;;;;;5045063;28;20036;-35
2022/08/20 10:20:38;;;;;;;3.72;1.30;;;22.70;96.20;;;;;;5043915;28;20021;-35
2022/08/20 10:23:04;;;;;;;5.00;1.48;;;22.90;96.00;;;;;;5044805;28;20491;-35
2022/08/20 10:25:30;;;;;;;4.28;1.38;;;23.10;96.00;;;;;;5044498;28;20034;-35
2022/08/20 10:27:55;;;;;;;3.92;1.48;;;23.20;95.00;;;;;;5043990;28;20021;-36
2022/08/20 10:30:21;;;;;;;5.85;1.90;;;23.40;94.60;;;;;;5044871;28;20141;-35
2022/08/20 10:32:47;;;;;;;4.13;1.55;;;23.50;94.40;;;;;;5044286;28;20558;-35
2022/08/20 10:35:13;;;;;;;3.35;1.17;;;23.50;94.90;;;;;;5044022;28;20040;-35
2022/08/20 10:37:38;;;;;;;4.82;1.42;;;23.40;94.70;;;;;;5044489;28;20033;-35
2022/08/20 10:40:05;;;;;;;6.13;1.50;;;23.30;94.80;;;;;;5053350;28;20033;-35
2022/08/20 10:42:31;;;;;;;4.25;1.65;;;23.40;93.80;;;;;;5050632;28;20328;-35
2022/08/20 10:44:56;;;;;;;5.68;1.65;;;23.30;93.50;;;;;;5044930;28;20060;-35
2022/08/20 10:47:24;;;;;;;3.38;1.38;;;23.30;93.60;;;;;;5044299;28;20035;-35
2022/08/20 10:49:55;;;;;;;5.30;1.60;;;23.40;93.60;;;;;;5044922;28;20520;-38
2022/08/20 10:52:21;;;;;;;5.55;1.50;;;23.40;93.50;;;;;;5047775;28;20065;-36
2022/08/20 10:54:47;;;;;;;5.60;1.50;;;23.50;93.40;;;;;;5047906;28;20025;-37
2022/08/20 10:57:18;;;;;;;4.50;1.38;;;23.50;92.60;;;;;;5048223;28;20037;-36
2022/08/20 10:59:46;;;;;;;4.68;1.50;;;23.50;92.00;;;;;;5048038;28;20576;-36
2022/08/20 11:02:13;;;;;;;5.25;1.75;;;23.50;91.90;;;;;;5047686;28;20024;-36
2022/08/20 11:04:39;;;;;;;5.65;1.90;;;23.40;91.30;;;;;;5047396;28;20061;-35
2022/08/20 11:07:26;;;;;;;4.57;1.60;;;23.40;91.70;;;;;;5048464;28;20061;-35
2022/08/20 11:09:52;;;;;;;6.80;1.67;;;23.50;91.80;;;;;;5047483;28;20032;-35
2022/08/20 11:12:19;;;;;;;5.57;1.55;;;23.50;91.40;;;;;;5048085;28;20124;-35
2022/08/20 11:14:45;;;;;;;4.25;1.90;;;23.50;91.30;;;;;;5047822;28;20432;-35
2022/08/20 11:17:11;;;;;;;3.60;1.25;;;23.50;91.00;;;;;;5047231;28;20485;-35
2022/08/20 11:19:41;;;;;;;4.78;1.70;;;23.50;91.40;;;;;;5046599;28;20568;-35
2022/08/20 11:22:07;;;;;;;3.55;1.33;;;23.40;91.10;;;;;;5047864;28;20226;-35
2022/08/20 11:24:33;;;;;;;3.75;1.05;;;23.40;91.30;;;;;;5047215;28;20074;-36
2022/08/20 11:26:58;;;;;;;3.35;1.45;;;23.30;91.60;;;;;;5048030;28;20296;-36
2022/08/20 11:29:24;;;;;;;4.25;1.30;;;23.40;91.40;;;;;;5047276;28;20108;-36
2022/08/20 11:31:50;;;;;;;2.42;1.10;;;23.50;91.40;;;;;;5047791;28;20116;-35
2022/08/20 11:34:16;;;;;;;2.35;1.05;;;23.50;91.00;;;;;;5048300;28;20021;-35
2022/08/20 11:36:42;;;;;;;4.28;1.33;;;23.50;90.70;;;;;;5047063;28;20037;-36
2022/08/20 11:39:08;;;;;;;3.10;1.23;;;23.50;90.90;;;;;;5047100;28;20031;-36
2022/08/20 11:41:33;;;;;;;3.70;1.48;;;23.60;88.80;;;;;;5047807;28;20025;-35
2022/08/20 11:43:59;;;;;;;6.18;1.52;;;23.60;87.30;;;;;;5046395;28;20500;-35
2022/08/20 11:46:24;;;;;;;5.93;1.55;;;23.70;88.00;;;;;;5047112;28;20063;-35
2022/08/20 11:48:50;;;;;;;5.85;1.75;;;23.80;86.70;;;;;;5047853;28;20525;-35
2022/08/20 11:51:15;;;;;;;3.90;1.30;;;23.80;86.40;;;;;;5047642;28;20554;-35
2022/08/20 11:53:41;;;;;;;2.72;1.20;;;23.90;87.00;;;;;;5046680;28;20036;-35
2022/08/20 11:56:07;;;;;;;5.72;1.60;;;24.10;87.00;;;;;;5047162;28;20123;-36
2022/08/20 11:58:32;;;;;;;2.80;1.25;;;24.20;86.70;;;;;;5046345;28;20376;-37
2022/08/20 12:00:58;;;;;;;5.18;1.52;;;24.30;86.50;;;;;;5047204;28;20024;-35
2022/08/20 12:03:23;;;;;;;4.63;1.70;;;24.30;85.00;;;;;;5046485;28;20299;-34
2022/08/20 12:05:49;;;;;;;4.80;1.75;;;24.20;83.80;;;;;;5045836;28;20379;-33
2022/08/20 12:08:15;;;;;;;4.45;1.48;;;24.10;83.10;;;;;;5047123;28;20017;-44
2022/08/20 12:10:41;;;;;;;6.90;1.50;;;23.90;82.50;;;;;;5047110;28;20035;-44
2022/08/20 12:13:07;;;;;;;2.80;1.17;;;23.90;83.00;;;;;;5046188;28;20477;-44
2022/08/20 12:15:34;;;;;;;4.25;1.30;;;23.90;82.60;;;;;;5046493;28;20626;-44
2022/08/20 12:18:00;;;;;;;4.80;1.30;;;23.80;83.10;;;;;;5046737;28;20029;-44
2022/08/20 12:20:25;;;;;;;2.75;1.10;;;23.90;81.20;;;;;;5043904;28;20025;-44
2022/08/20 12:22:52;;;;;;;3.47;1.20;;;24.00;82.00;;;;;;5046149;28;20013;-44
2022/08/20 12:25:19;;;;;;;2.15;1.00;;;24.10;82.30;;;;;;5046904;28;20480;-44
2022/08/20 12:27:45;;;;;;;4.47;1.15;;;24.10;81.10;;;;;;5045696;28;20467;-44
2022/08/20 12:30:16;;;;;;;4.22;1.40;;;24.20;80.90;;;;;;5047194;28;20035;-44
2022/08/20 12:32:41;;;;;;;4.65;1.30;;;24.30;80.20;;;;;;5035345;28;20435;-44
2022/08/20 12:35:08;;;;;;;5.53;1.70;;;24.30;79.00;;;;;;5046101;28;20501;-44
2022/08/20 12:37:35;;;;;;;5.75;1.73;;;24.20;76.90;;;;;;5046372;28;20104;-44
2022/08/20 12:40:04;;;;;;;4.97;1.48;;;24.10;77.00;;;;;;5046153;28;20029;-44
2022/08/20 12:42:29;;;;;;;3.70;1.40;;;24.10;78.30;;;;;;5045885;28;20027;-45
2022/08/20 12:44:57;;;;;;;6.50;1.65;;;24.00;78.80;;;;;;5046645;28;20021;-45
2022/08/20 12:47:28;;;;;;;4.80;1.25;;;24.00;78.00;;;;;;5046033;28;20380;-46
2022/08/20 12:49:59;;;;;;;4.13;1.70;;;24.00;78.70;;;;;;5046239;28;20044;-46
2022/08/20 12:52:24;;;;;;;3.67;1.10;;;24.00;78.50;;;;;;5046231;28;20025;-45
2022/08/20 12:54:50;;;;;;;3.47;1.70;;;24.00;78.70;;;;;;5046099;28;20076;-46
2022/08/20 12:57:28;;;;;;;2.58;1.23;;;24.00;78.50;;;;;;5046451;28;20507;-46